This is the latest recevied weather packets stored in our database for station/object CYVR. If no packets are shown the sender has not sent any weather packets the latest 10 day(s).
| Time | Temp. | Humidity | Pressure | Rain* | Wind** | Luminosity | Snow |
|---|---|---|---|---|---|---|---|
| 1777613002 | 12.78° C | 100% | 1015.9 hPa | - | - | - | - |
| 1777612397 | 12.78° C | 100% | 1015.9 hPa | - | - | - | - |
| 1777611921 | 12.78° C | 100% | 1015.9 hPa | - | - | - | - |
| 1777611201 | 12.78° C | 100% | 1015.9 hPa | - | - | - | - |
| 1777610595 | 12.78° C | 100% | 1015.9 hPa | - | - | - | - |
| 1777610001 | 12.78° C | 100% | 1015.9 hPa | - | - | - | - |
| 1777609400 | 12.78° C | 100% | 1015.9 hPa | - | - | - | - |
| 1777608800 | 12.78° C | 100% | 1015.9 hPa | - | - | - | - |
| 1777608206 | 13.89° C | 87% | 1015.9 hPa | - | - | - | - |
| 1777607601 | 13.89° C | 87% | 1015.9 hPa | - | - | - | - |
| 1777606997 | 13.89° C | 87% | 1015.9 hPa | - | - | - | - |
| 1777606398 | 13.89° C | 87% | 1015.9 hPa | - | - | - | - |
| 1777605801 | 13.89° C | 87% | 1015.9 hPa | - | - | - | - |
| 1777605197 | 13.89° C | 87% | 1015.9 hPa | - | - | - | - |
| 1777604000 | 15.56° C | 87% | 1015.9 hPa | - | - | - | - |
| 1777603399 | 15.56° C | 87% | 1015.9 hPa | - | - | - | - |
| 1777602804 | 15.56° C | 87% | 1015.9 hPa | - | - | - | - |
| 1777602200 | 15.56° C | 87% | 1015.9 hPa | - | - | - | - |
| 1777601601 | 15.56° C | 87% | 1015.9 hPa | - | - | - | - |
| 1777600399 | 17.78° C | 63% | 1016.6 hPa | - | - | - | - |
| 1777587199 | 16.67° C | 77% | 1019 hPa | - | - | - | - |
| 1777586008 | 17.78° C | 67% | 1019.6 hPa | - | - | - | - |
| 1777583003 | 16.67° C | 72% | 1020.3 hPa | - | - | - | - |
| 1777573400 | 13.89° C | 87% | 1021.3 hPa | - | - | - | - |
| 1777570401 | 15° C | 77% | 1021.3 hPa | - | - | - | - |
* Rain since midnight (hover to see other rain measurements)
** Current wind speed in m/s (hover to see current wind gust speed)